sensor_id;sensor_type;location;lat;lon;timestamp;P1;durP1;ratioP1;P2;durP2;ratioP2
80398;SDS011;69722;48.642;9.142;2023-07-13T00:00:12;3.00;;;1.90;;
80398;SDS011;69722;48.642;9.142;2023-07-13T00:02:40;2.63;;;1.60;;
80398;SDS011;69722;48.642;9.142;2023-07-13T00:05:06;3.30;;;2.40;;
80398;SDS011;69722;48.642;9.142;2023-07-13T00:07:31;3.92;;;2.10;;
80398;SDS011;69722;48.642;9.142;2023-07-13T00:09:57;3.40;;;1.93;;
80398;SDS011;69722;48.642;9.142;2023-07-13T00:14:54;4.60;;;2.60;;
80398;SDS011;69722;48.642;9.142;2023-07-13T00:17:21;5.07;;;2.83;;
80398;SDS011;69722;48.642;9.142;2023-07-13T00:19:46;4.65;;;2.45;;
80398;SDS011;69722;48.642;9.142;2023-07-13T00:22:12;4.50;;;2.47;;
80398;SDS011;69722;48.642;9.142;2023-07-13T00:24:37;3.30;;;2.20;;
80398;SDS011;69722;48.642;9.142;2023-07-13T00:27:06;3.70;;;2.30;;
80398;SDS011;69722;48.642;9.142;2023-07-13T00:29:35;4.93;;;2.30;;
80398;SDS011;69722;48.642;9.142;2023-07-13T00:32:02;3.75;;;2.13;;
80398;SDS011;69722;48.642;9.142;2023-07-13T00:34:28;3.47;;;1.83;;
80398;SDS011;69722;48.642;9.142;2023-07-13T00:36:53;3.87;;;1.97;;
80398;SDS011;69722;48.642;9.142;2023-07-13T00:39:18;2.87;;;2.03;;
80398;SDS011;69722;48.642;9.142;2023-07-13T00:41:45;4.32;;;2.25;;
80398;SDS011;69722;48.642;9.142;2023-07-13T00:44:14;3.45;;;2.10;;
80398;SDS011;69722;48.642;9.142;2023-07-13T00:46:40;4.25;;;2.30;;
80398;SDS011;69722;48.642;9.142;2023-07-13T00:49:07;3.80;;;2.05;;
80398;SDS011;69722;48.642;9.142;2023-07-13T00:51:41;3.15;;;2.00;;
80398;SDS011;69722;48.642;9.142;2023-07-13T00:54:11;3.85;;;1.98;;
80398;SDS011;69722;48.642;9.142;2023-07-13T00:56:39;3.03;;;2.08;;
80398;SDS011;69722;48.642;9.142;2023-07-13T00:59:05;4.13;;;2.63;;
80398;SDS011;69722;48.642;9.142;2023-07-13T01:01:31;3.28;;;1.75;;
80398;SDS011;69722;48.642;9.142;2023-07-13T01:03:57;3.70;;;2.10;;
80398;SDS011;69722;48.642;9.142;2023-07-13T01:06:22;3.70;;;2.10;;
80398;SDS011;69722;48.642;9.142;2023-07-13T01:08:48;4.22;;;1.80;;
80398;SDS011;69722;48.642;9.142;2023-07-13T01:11:18;2.22;;;1.75;;
80398;SDS011;69722;48.642;9.142;2023-07-13T01:13:44;3.75;;;1.85;;
80398;SDS011;69722;48.642;9.142;2023-07-13T01:16:15;4.53;;;2.23;;
80398;SDS011;69722;48.642;9.142;2023-07-13T01:18:46;3.22;;;2.05;;
80398;SDS011;69722;48.642;9.142;2023-07-13T01:21:11;7.83;;;2.40;;
80398;SDS011;69722;48.642;9.142;2023-07-13T01:23:36;4.73;;;1.70;;
80398;SDS011;69722;48.642;9.142;2023-07-13T01:26:02;2.60;;;1.83;;
80398;SDS011;69722;48.642;9.142;2023-07-13T01:28:27;2.47;;;1.60;;
80398;SDS011;69722;48.642;9.142;2023-07-13T01:30:54;4.00;;;2.03;;
80398;SDS011;69722;48.642;9.142;2023-07-13T01:33:20;3.17;;;1.98;;
80398;SDS011;69722;48.642;9.142;2023-07-13T01:35:46;3.53;;;1.80;;
80398;SDS011;69722;48.642;9.142;2023-07-13T01:38:14;4.30;;;2.00;;
80398;SDS011;69722;48.642;9.142;2023-07-13T01:40:41;4.68;;;2.30;;
80398;SDS011;69722;48.642;9.142;2023-07-13T01:43:06;5.40;;;2.15;;
80398;SDS011;69722;48.642;9.142;2023-07-13T01:45:32;6.35;;;1.85;;
80398;SDS011;69722;48.642;9.142;2023-07-13T01:47:57;3.33;;;2.08;;
80398;SDS011;69722;48.642;9.142;2023-07-13T01:50:23;4.22;;;2.00;;
80398;SDS011;69722;48.642;9.142;2023-07-13T01:52:49;3.03;;;1.63;;
80398;SDS011;69722;48.642;9.142;2023-07-13T01:55:14;3.20;;;2.23;;
80398;SDS011;69722;48.642;9.142;2023-07-13T01:57:39;5.30;;;3.63;;
80398;SDS011;69722;48.642;9.142;2023-07-13T02:00:05;5.80;;;2.08;;
80398;SDS011;69722;48.642;9.142;2023-07-13T02:02:32;3.35;;;1.92;;
80398;SDS011;69722;48.642;9.142;2023-07-13T02:04:57;2.97;;;1.77;;
80398;SDS011;69722;48.642;9.142;2023-07-13T02:07:22;5.43;;;2.13;;
80398;SDS011;69722;48.642;9.142;2023-07-13T02:09:47;6.20;;;4.43;;
80398;SDS011;69722;48.642;9.142;2023-07-13T02:12:13;4.13;;;2.47;;
80398;SDS011;69722;48.642;9.142;2023-07-13T02:14:38;5.57;;;2.73;;
80398;SDS011;69722;48.642;9.142;2023-07-13T02:17:04;4.33;;;2.07;;
80398;SDS011;69722;48.642;9.142;2023-07-13T02:19:29;3.35;;;2.30;;
80398;SDS011;69722;48.642;9.142;2023-07-13T02:21:55;3.83;;;2.20;;
80398;SDS011;69722;48.642;9.142;2023-07-13T02:24:20;3.87;;;2.33;;
80398;SDS011;69722;48.642;9.142;2023-07-13T02:26:46;4.82;;;2.13;;
80398;SDS011;69722;48.642;9.142;2023-07-13T02:29:11;3.88;;;2.03;;
80398;SDS011;69722;48.642;9.142;2023-07-13T02:31:37;2.80;;;2.00;;
80398;SDS011;69722;48.642;9.142;2023-07-13T02:34:02;3.05;;;1.92;;
80398;SDS011;69722;48.642;9.142;2023-07-13T02:36:28;3.08;;;1.70;;
80398;SDS011;69722;48.642;9.142;2023-07-13T02:38:54;3.95;;;2.10;;
80398;SDS011;69722;48.642;9.142;2023-07-13T02:41:20;4.93;;;2.10;;
80398;SDS011;69722;48.642;9.142;2023-07-13T02:43:45;5.80;;;2.80;;
80398;SDS011;69722;48.642;9.142;2023-07-13T02:46:11;4.50;;;2.20;;
80398;SDS011;69722;48.642;9.142;2023-07-13T02:48:36;6.13;;;1.90;;
80398;SDS011;69722;48.642;9.142;2023-07-13T02:51:02;4.75;;;2.58;;
80398;SDS011;69722;48.642;9.142;2023-07-13T02:53:28;3.40;;;2.08;;
80398;SDS011;69722;48.642;9.142;2023-07-13T02:55:53;4.13;;;2.20;;
80398;SDS011;69722;48.642;9.142;2023-07-13T02:58:19;3.80;;;2.15;;
80398;SDS011;69722;48.642;9.142;2023-07-13T03:00:46;4.18;;;2.05;;
80398;SDS011;69722;48.642;9.142;2023-07-13T03:03:12;6.10;;;2.33;;
80398;SDS011;69722;48.642;9.142;2023-07-13T03:05:40;5.53;;;2.55;;
80398;SDS011;69722;48.642;9.142;2023-07-13T03:08:07;4.63;;;2.38;;
80398;SDS011;69722;48.642;9.142;2023-07-13T03:10:32;10.88;;;2.88;;
80398;SDS011;69722;48.642;9.142;2023-07-13T03:12:57;3.57;;;2.17;;
80398;SDS011;69722;48.642;9.142;2023-07-13T03:15:23;4.40;;;2.77;;
80398;SDS011;69722;48.642;9.142;2023-07-13T03:17:48;5.65;;;2.15;;
80398;SDS011;69722;48.642;9.142;2023-07-13T03:20:14;3.80;;;2.10;;
80398;SDS011;69722;48.642;9.142;2023-07-13T03:22:39;3.85;;;2.10;;
80398;SDS011;69722;48.642;9.142;2023-07-13T03:25:05;5.57;;;2.37;;
80398;SDS011;69722;48.642;9.142;2023-07-13T03:27:30;3.53;;;2.70;;
80398;SDS011;69722;48.642;9.142;2023-07-13T03:29:56;6.27;;;2.43;;
80398;SDS011;69722;48.642;9.142;2023-07-13T03:32:21;3.93;;;2.40;;
80398;SDS011;69722;48.642;9.142;2023-07-13T03:34:46;4.03;;;2.60;;
80398;SDS011;69722;48.642;9.142;2023-07-13T03:37:11;4.80;;;3.27;;
80398;SDS011;69722;48.642;9.142;2023-07-13T03:39:37;7.97;;;2.40;;
80398;SDS011;69722;48.642;9.142;2023-07-13T03:42:02;4.33;;;2.43;;
80398;SDS011;69722;48.642;9.142;2023-07-13T03:44:28;5.47;;;2.53;;
80398;SDS011;69722;48.642;9.142;2023-07-13T03:46:53;5.53;;;2.40;;
80398;SDS011;69722;48.642;9.142;2023-07-13T03:49:18;2.65;;;1.70;;
80398;SDS011;69722;48.642;9.142;2023-07-13T03:51:44;5.87;;;2.17;;
80398;SDS011;69722;48.642;9.142;2023-07-13T03:54:09;5.33;;;2.40;;
80398;SDS011;69722;48.642;9.142;2023-07-13T03:56:34;4.00;;;2.58;;
80398;SDS011;69722;48.642;9.142;2023-07-13T03:59:00;3.17;;;2.20;;
80398;SDS011;69722;48.642;9.142;2023-07-13T04:01:25;3.10;;;1.88;;
80398;SDS011;69722;48.642;9.142;2023-07-13T04:03:51;5.60;;;2.50;;
80398;SDS011;69722;48.642;9.142;2023-07-13T04:06:18;4.32;;;2.28;;
80398;SDS011;69722;48.642;9.142;2023-07-13T04:08:53;3.55;;;2.13;;
80398;SDS011;69722;48.642;9.142;2023-07-13T04:11:21;4.82;;;2.60;;
80398;SDS011;69722;48.642;9.142;2023-07-13T04:16:13;4.30;;;2.40;;
80398;SDS011;69722;48.642;9.142;2023-07-13T04:18:39;4.45;;;2.25;;
80398;SDS011;69722;48.642;9.142;2023-07-13T04:21:04;4.63;;;2.73;;
80398;SDS011;69722;48.642;9.142;2023-07-13T04:23:29;5.20;;;2.03;;
80398;SDS011;69722;48.642;9.142;2023-07-13T04:25:55;3.80;;;2.30;;
80398;SDS011;69722;48.642;9.142;2023-07-13T04:28:21;4.10;;;2.38;;
80398;SDS011;69722;48.642;9.142;2023-07-13T04:30:47;2.85;;;1.83;;
80398;SDS011;69722;48.642;9.142;2023-07-13T04:33:13;4.88;;;2.72;;
80398;SDS011;69722;48.642;9.142;2023-07-13T04:35:39;7.10;;;2.03;;
80398;SDS011;69722;48.642;9.142;2023-07-13T04:38:04;6.30;;;3.30;;
80398;SDS011;69722;48.642;9.142;2023-07-13T04:40:29;5.20;;;2.65;;
80398;SDS011;69722;48.642;9.142;2023-07-13T04:42:55;7.70;;;2.63;;
80398;SDS011;69722;48.642;9.142;2023-07-13T04:45:21;4.55;;;2.70;;
80398;SDS011;69722;48.642;9.142;2023-07-13T04:47:48;5.05;;;3.30;;
80398;SDS011;69722;48.642;9.142;2023-07-13T04:50:14;6.90;;;2.93;;
80398;SDS011;69722;48.642;9.142;2023-07-13T04:52:46;6.32;;;2.83;;
80398;SDS011;69722;48.642;9.142;2023-07-13T04:55:11;8.10;;;4.20;;
80398;SDS011;69722;48.642;9.142;2023-07-13T04:57:36;6.70;;;3.10;;
80398;SDS011;69722;48.642;9.142;2023-07-13T05:00:02;8.30;;;3.05;;
80398;SDS011;69722;48.642;9.142;2023-07-13T05:02:31;6.07;;;2.60;;
80398;SDS011;69722;48.642;9.142;2023-07-13T05:04:57;6.78;;;2.85;;
80398;SDS011;69722;48.642;9.142;2023-07-13T05:07:23;6.70;;;3.25;;
80398;SDS011;69722;48.642;9.142;2023-07-13T05:09:48;5.38;;;2.65;;
80398;SDS011;69722;48.642;9.142;2023-07-13T05:12:13;5.93;;;3.20;;
80398;SDS011;69722;48.642;9.142;2023-07-13T05:14:39;6.67;;;2.90;;
80398;SDS011;69722;48.642;9.142;2023-07-13T05:17:04;7.60;;;3.73;;
80398;SDS011;69722;48.642;9.142;2023-07-13T05:19:29;6.73;;;3.17;;
80398;SDS011;69722;48.642;9.142;2023-07-13T05:21:55;7.30;;;2.60;;
80398;SDS011;69722;48.642;9.142;2023-07-13T05:24:20;8.80;;;4.43;;
80398;SDS011;69722;48.642;9.142;2023-07-13T05:26:46;5.57;;;2.60;;
80398;SDS011;69722;48.642;9.142;2023-07-13T05:29:11;3.77;;;2.57;;
80398;SDS011;69722;48.642;9.142;2023-07-13T05:31:36;4.47;;;2.63;;
80398;SDS011;69722;48.642;9.142;2023-07-13T05:34:02;4.68;;;2.80;;
80398;SDS011;69722;48.642;9.142;2023-07-13T05:36:27;5.33;;;2.40;;
80398;SDS011;69722;48.642;9.142;2023-07-13T05:38:53;5.47;;;2.17;;
80398;SDS011;69722;48.642;9.142;2023-07-13T05:41:18;6.07;;;2.10;;
80398;SDS011;69722;48.642;9.142;2023-07-13T05:43:43;4.77;;;2.30;;
80398;SDS011;69722;48.642;9.142;2023-07-13T05:46:08;3.93;;;2.27;;
80398;SDS011;69722;48.642;9.142;2023-07-13T05:48:34;6.40;;;2.27;;
80398;SDS011;69722;48.642;9.142;2023-07-13T05:51:00;3.47;;;2.30;;
80398;SDS011;69722;48.642;9.142;2023-07-13T05:53:25;4.20;;;2.45;;
80398;SDS011;69722;48.642;9.142;2023-07-13T05:55:51;5.30;;;2.17;;
80398;SDS011;69722;48.642;9.142;2023-07-13T05:58:19;5.68;;;2.60;;
80398;SDS011;69722;48.642;9.142;2023-07-13T06:00:45;4.18;;;2.40;;
80398;SDS011;69722;48.642;9.142;2023-07-13T06:03:11;3.47;;;2.10;;
80398;SDS011;69722;48.642;9.142;2023-07-13T06:05:36;6.27;;;2.50;;
80398;SDS011;69722;48.642;9.142;2023-07-13T06:08:03;5.05;;;2.30;;
80398;SDS011;69722;48.642;9.142;2023-07-13T06:10:28;5.28;;;2.22;;
80398;SDS011;69722;48.642;9.142;2023-07-13T06:12:54;6.65;;;2.40;;
80398;SDS011;69722;48.642;9.142;2023-07-13T06:15:19;3.80;;;2.37;;
80398;SDS011;69722;48.642;9.142;2023-07-13T06:17:45;7.13;;;2.43;;
80398;SDS011;69722;48.642;9.142;2023-07-13T06:20:10;6.53;;;2.50;;
80398;SDS011;69722;48.642;9.142;2023-07-13T06:22:35;6.60;;;2.30;;
80398;SDS011;69722;48.642;9.142;2023-07-13T06:25:01;4.80;;;2.93;;
80398;SDS011;69722;48.642;9.142;2023-07-13T06:27:26;7.20;;;2.70;;
80398;SDS011;69722;48.642;9.142;2023-07-13T06:29:52;8.47;;;2.60;;
80398;SDS011;69722;48.642;9.142;2023-07-13T06:32:17;5.03;;;2.30;;
80398;SDS011;69722;48.642;9.142;2023-07-13T06:34:42;7.85;;;2.42;;
80398;SDS011;69722;48.642;9.142;2023-07-13T06:37:08;6.87;;;2.67;;
80398;SDS011;69722;48.642;9.142;2023-07-13T06:39:34;4.15;;;2.30;;
80398;SDS011;69722;48.642;9.142;2023-07-13T06:41:59;3.93;;;2.10;;
80398;SDS011;69722;48.642;9.142;2023-07-13T06:44:25;4.90;;;2.33;;
80398;SDS011;69722;48.642;9.142;2023-07-13T06:46:50;3.90;;;2.42;;
80398;SDS011;69722;48.642;9.142;2023-07-13T06:49:16;5.17;;;2.53;;
80398;SDS011;69722;48.642;9.142;2023-07-13T06:51:41;6.70;;;2.30;;
80398;SDS011;69722;48.642;9.142;2023-07-13T06:54:06;4.73;;;2.47;;
80398;SDS011;69722;48.642;9.142;2023-07-13T06:56:32;4.25;;;2.00;;
80398;SDS011;69722;48.642;9.142;2023-07-13T06:58:57;3.77;;;2.10;;
80398;SDS011;69722;48.642;9.142;2023-07-13T07:01:22;6.40;;;2.27;;
80398;SDS011;69722;48.642;9.142;2023-07-13T07:03:48;5.70;;;2.37;;
80398;SDS011;69722;48.642;9.142;2023-07-13T07:08:43;5.22;;;2.38;;
80398;SDS011;69722;48.642;9.142;2023-07-13T07:11:13;4.15;;;2.22;;
80398;SDS011;69722;48.642;9.142;2023-07-13T07:13:41;2.40;;;1.50;;
80398;SDS011;69722;48.642;9.142;2023-07-13T07:16:07;4.97;;;2.23;;
80398;SDS011;69722;48.642;9.142;2023-07-13T07:18:33;3.13;;;2.05;;
80398;SDS011;69722;48.642;9.142;2023-07-13T07:20:58;4.10;;;1.80;;
80398;SDS011;69722;48.642;9.142;2023-07-13T07:23:24;3.33;;;1.90;;
80398;SDS011;69722;48.642;9.142;2023-07-13T07:25:49;7.10;;;2.60;;
80398;SDS011;69722;48.642;9.142;2023-07-13T07:28:16;3.38;;;2.13;;
80398;SDS011;69722;48.642;9.142;2023-07-13T07:30:45;3.97;;;2.00;;
80398;SDS011;69722;48.642;9.142;2023-07-13T07:33:10;3.58;;;1.70;;
80398;SDS011;69722;48.642;9.142;2023-07-13T07:35:35;2.23;;;1.80;;
80398;SDS011;69722;48.642;9.142;2023-07-13T07:38:01;4.47;;;2.58;;
80398;SDS011;69722;48.642;9.142;2023-07-13T07:40:26;7.07;;;2.30;;
80398;SDS011;69722;48.642;9.142;2023-07-13T07:42:52;4.80;;;2.40;;
80398;SDS011;69722;48.642;9.142;2023-07-13T07:45:18;5.70;;;1.85;;
80398;SDS011;69722;48.642;9.142;2023-07-13T07:47:43;4.55;;;1.92;;
80398;SDS011;69722;48.642;9.142;2023-07-13T07:50:09;7.93;;;3.00;;
80398;SDS011;69722;48.642;9.142;2023-07-13T07:52:35;3.35;;;2.00;;
80398;SDS011;69722;48.642;9.142;2023-07-13T07:55:00;3.80;;;2.20;;
80398;SDS011;69722;48.642;9.142;2023-07-13T07:57:25;4.78;;;2.42;;
80398;SDS011;69722;48.642;9.142;2023-07-13T07:59:51;4.07;;;1.95;;
80398;SDS011;69722;48.642;9.142;2023-07-13T08:02:16;3.63;;;2.10;;
80398;SDS011;69722;48.642;9.142;2023-07-13T08:04:41;11.30;;;2.17;;
80398;SDS011;69722;48.642;9.142;2023-07-13T08:07:07;4.87;;;2.30;;
80398;SDS011;69722;48.642;9.142;2023-07-13T08:09:33;4.95;;;2.20;;
80398;SDS011;69722;48.642;9.142;2023-07-13T08:11:58;5.60;;;2.03;;
80398;SDS011;69722;48.642;9.142;2023-07-13T08:14:23;4.33;;;2.23;;
80398;SDS011;69722;48.642;9.142;2023-07-13T08:16:49;4.10;;;1.90;;
80398;SDS011;69722;48.642;9.142;2023-07-13T08:19:14;3.28;;;2.00;;
80398;SDS011;69722;48.642;9.142;2023-07-13T08:21:40;2.87;;;1.80;;
80398;SDS011;69722;48.642;9.142;2023-07-13T08:24:07;4.07;;;2.00;;
80398;SDS011;69722;48.642;9.142;2023-07-13T08:26:32;4.20;;;2.10;;
80398;SDS011;69722;48.642;9.142;2023-07-13T08:28:58;4.00;;;2.03;;
80398;SDS011;69722;48.642;9.142;2023-07-13T08:31:23;4.90;;;1.90;;
80398;SDS011;69722;48.642;9.142;2023-07-13T08:33:48;4.47;;;1.90;;
80398;SDS011;69722;48.642;9.142;2023-07-13T08:36:14;3.60;;;2.03;;
80398;SDS011;69722;48.642;9.142;2023-07-13T08:38:39;2.90;;;1.80;;
80398;SDS011;69722;48.642;9.142;2023-07-13T08:41:12;2.73;;;1.93;;
80398;SDS011;69722;48.642;9.142;2023-07-13T08:43:39;4.75;;;2.20;;
80398;SDS011;69722;48.642;9.142;2023-07-13T08:46:09;6.68;;;2.17;;
80398;SDS011;69722;48.642;9.142;2023-07-13T08:48:44;4.07;;;1.90;;
80398;SDS011;69722;48.642;9.142;2023-07-13T08:53:50;2.85;;;1.85;;
80398;SDS011;69722;48.642;9.142;2023-07-13T08:56:19;5.82;;;1.92;;
80398;SDS011;69722;48.642;9.142;2023-07-13T08:58:47;4.07;;;1.80;;
80398;SDS011;69722;48.642;9.142;2023-07-13T09:04:11;4.07;;;2.25;;
80398;SDS011;69722;48.642;9.142;2023-07-13T09:12:17;4.63;;;2.20;;
80398;SDS011;69722;48.642;9.142;2023-07-13T09:14:53;6.28;;;2.03;;
80398;SDS011;69722;48.642;9.142;2023-07-13T09:17:31;5.20;;;2.30;;
80398;SDS011;69722;48.642;9.142;2023-07-13T09:20:00;5.07;;;2.10;;
80398;SDS011;69722;48.642;9.142;2023-07-13T09:22:31;2.55;;;1.90;;
80398;SDS011;69722;48.642;9.142;2023-07-13T09:25:44;2.47;;;1.70;;
80398;SDS011;69722;48.642;9.142;2023-07-13T09:27:53;5.10;;;2.00;;
80398;SDS011;69722;48.642;9.142;2023-07-13T09:30:33;5.53;;;2.13;;
80398;SDS011;69722;48.642;9.142;2023-07-13T09:33:01;6.45;;;1.75;;
80398;SDS011;69722;48.642;9.142;2023-07-13T09:35:27;2.83;;;1.98;;
80398;SDS011;69722;48.642;9.142;2023-07-13T09:37:57;4.13;;;1.70;;
80398;SDS011;69722;48.642;9.142;2023-07-13T09:40:30;5.50;;;2.40;;
80398;SDS011;69722;48.642;9.142;2023-07-13T09:43:04;4.07;;;2.10;;
80398;SDS011;69722;48.642;9.142;2023-07-13T09:45:30;6.55;;;2.42;;
80398;SDS011;69722;48.642;9.142;2023-07-13T09:48:05;3.17;;;1.67;;
80398;SDS011;69722;48.642;9.142;2023-07-13T09:50:33;4.18;;;2.05;;
80398;SDS011;69722;48.642;9.142;2023-07-13T09:53:00;4.45;;;2.25;;
80398;SDS011;69722;48.642;9.142;2023-07-13T09:55:37;3.67;;;1.85;;
80398;SDS011;69722;48.642;9.142;2023-07-13T09:58:04;8.25;;;2.10;;
80398;SDS011;69722;48.642;9.142;2023-07-13T10:00:35;4.22;;;2.20;;
80398;SDS011;69722;48.642;9.142;2023-07-13T10:03:17;7.93;;;2.10;;
80398;SDS011;69722;48.642;9.142;2023-07-13T10:05:48;4.95;;;2.40;;
80398;SDS011;69722;48.642;9.142;2023-07-13T10:08:36;4.95;;;1.98;;
80398;SDS011;69722;48.642;9.142;2023-07-13T10:11:23;4.43;;;1.90;;
80398;SDS011;69722;48.642;9.142;2023-07-13T10:13:59;4.82;;;1.98;;
80398;SDS011;69722;48.642;9.142;2023-07-13T10:16:31;3.80;;;2.10;;
80398;SDS011;69722;48.642;9.142;2023-07-13T10:19:11;3.15;;;1.90;;
80398;SDS011;69722;48.642;9.142;2023-07-13T10:21:39;3.97;;;2.20;;
80398;SDS011;69722;48.642;9.142;2023-07-13T10:24:13;4.75;;;2.40;;
80398;SDS011;69722;48.642;9.142;2023-07-13T10:26:55;4.38;;;2.13;;
80398;SDS011;69722;48.642;9.142;2023-07-13T10:29:46;6.40;;;2.30;;
80398;SDS011;69722;48.642;9.142;2023-07-13T10:32:15;3.40;;;2.17;;
80398;SDS011;69722;48.642;9.142;2023-07-13T10:34:41;4.32;;;2.08;;
80398;SDS011;69722;48.642;9.142;2023-07-13T10:37:17;7.90;;;2.42;;
80398;SDS011;69722;48.642;9.142;2023-07-13T10:39:45;7.18;;;2.20;;
80398;SDS011;69722;48.642;9.142;2023-07-13T10:42:11;5.53;;;2.38;;
80398;SDS011;69722;48.642;9.142;2023-07-13T10:44:42;5.78;;;2.00;;
80398;SDS011;69722;48.642;9.142;2023-07-13T10:47:08;6.00;;;2.10;;
80398;SDS011;69722;48.642;9.142;2023-07-13T10:49:38;6.55;;;2.42;;
80398;SDS011;69722;48.642;9.142;2023-07-13T10:52:04;4.18;;;2.28;;
80398;SDS011;69722;48.642;9.142;2023-07-13T10:54:31;8.23;;;2.60;;
80398;SDS011;69722;48.642;9.142;2023-07-13T10:59:37;4.93;;;2.25;;
80398;SDS011;69722;48.642;9.142;2023-07-13T11:04:45;6.35;;;2.40;;
80398;SDS011;69722;48.642;9.142;2023-07-13T11:07:22;6.00;;;2.40;;
80398;SDS011;69722;48.642;9.142;2023-07-13T11:09:53;3.53;;;2.25;;
80398;SDS011;69722;48.642;9.142;2023-07-13T11:22:52;5.32;;;2.20;;
80398;SDS011;69722;48.642;9.142;2023-07-13T11:25:34;6.40;;;2.08;;
80398;SDS011;69722;48.642;9.142;2023-07-13T11:30:43;3.95;;;2.00;;
80398;SDS011;69722;48.642;9.142;2023-07-13T11:33:19;3.65;;;2.28;;
80398;SDS011;69722;48.642;9.142;2023-07-13T11:36:03;3.90;;;2.10;;
80398;SDS011;69722;48.642;9.142;2023-07-13T11:38:40;6.43;;;2.20;;
80398;SDS011;69722;48.642;9.142;2023-07-13T11:41:23;5.60;;;2.63;;
80398;SDS011;69722;48.642;9.142;2023-07-13T11:43:55;6.43;;;2.97;;
80398;SDS011;69722;48.642;9.142;2023-07-13T11:46:36;4.22;;;2.00;;
80398;SDS011;69722;48.642;9.142;2023-07-13T11:49:04;3.10;;;2.00;;
80398;SDS011;69722;48.642;9.142;2023-07-13T11:51:31;5.15;;;2.22;;
80398;SDS011;69722;48.642;9.142;2023-07-13T11:54:02;4.43;;;1.90;;
80398;SDS011;69722;48.642;9.142;2023-07-13T11:56:29;3.58;;;2.13;;
80398;SDS011;69722;48.642;9.142;2023-07-13T11:58:55;4.63;;;2.00;;
80398;SDS011;69722;48.642;9.142;2023-07-13T12:01:22;5.10;;;2.20;;
80398;SDS011;69722;48.642;9.142;2023-07-13T12:03:49;3.97;;;1.95;;
80398;SDS011;69722;48.642;9.142;2023-07-13T12:06:24;5.93;;;2.00;;
80398;SDS011;69722;48.642;9.142;2023-07-13T12:08:55;3.85;;;1.92;;
80398;SDS011;69722;48.642;9.142;2023-07-13T12:11:21;6.90;;;2.10;;
80398;SDS011;69722;48.642;9.142;2023-07-13T12:13:47;4.07;;;1.70;;
80398;SDS011;69722;48.642;9.142;2023-07-13T12:16:17;3.15;;;1.80;;
80398;SDS011;69722;48.642;9.142;2023-07-13T12:18:53;4.53;;;2.08;;
80398;SDS011;69722;48.642;9.142;2023-07-13T12:21:19;6.82;;;2.17;;
80398;SDS011;69722;48.642;9.142;2023-07-13T12:23:45;6.13;;;1.75;;
80398;SDS011;69722;48.642;9.142;2023-07-13T12:26:14;3.17;;;1.95;;
80398;SDS011;69722;48.642;9.142;2023-07-13T12:28:45;4.93;;;1.90;;
80398;SDS011;69722;48.642;9.142;2023-07-13T12:31:26;9.07;;;2.42;;
80398;SDS011;69722;48.642;9.142;2023-07-13T12:36:33;4.53;;;1.98;;
80398;SDS011;69722;48.642;9.142;2023-07-13T12:39:02;4.10;;;2.08;;
80398;SDS011;69722;48.642;9.142;2023-07-13T12:41:31;5.55;;;2.10;;
80398;SDS011;69722;48.642;9.142;2023-07-13T12:43:58;6.13;;;1.92;;
80398;SDS011;69722;48.642;9.142;2023-07-13T12:46:24;8.43;;;1.92;;
80398;SDS011;69722;48.642;9.142;2023-07-13T12:48:53;5.18;;;2.00;;
80398;SDS011;69722;48.642;9.142;2023-07-13T12:51:22;4.80;;;2.17;;
80398;SDS011;69722;48.642;9.142;2023-07-13T12:53:51;4.95;;;1.98;;
80398;SDS011;69722;48.642;9.142;2023-07-13T12:56:23;17.35;;;9.50;;
80398;SDS011;69722;48.642;9.142;2023-07-13T12:58:50;49.20;;;24.45;;
80398;SDS011;69722;48.642;9.142;2023-07-13T13:01:25;56.50;;;28.73;;
80398;SDS011;69722;48.642;9.142;2023-07-13T13:03:52;38.05;;;19.92;;
80398;SDS011;69722;48.642;9.142;2023-07-13T13:06:23;36.50;;;18.98;;
80398;SDS011;69722;48.642;9.142;2023-07-13T13:08:52;32.38;;;18.50;;
80398;SDS011;69722;48.642;9.142;2023-07-13T13:11:19;32.75;;;17.13;;
80398;SDS011;69722;48.642;9.142;2023-07-13T13:17:15;30.33;;;15.23;;
80398;SDS011;69722;48.642;9.142;2023-07-13T13:19:13;28.33;;;16.00;;
80398;SDS011;69722;48.642;9.142;2023-07-13T13:21:40;26.48;;;14.50;;
80398;SDS011;69722;48.642;9.142;2023-07-13T13:24:14;28.70;;;15.52;;
80398;SDS011;69722;48.642;9.142;2023-07-13T13:26:41;27.50;;;14.32;;
80398;SDS011;69722;48.642;9.142;2023-07-13T13:29:18;25.98;;;13.65;;
80398;SDS011;69722;48.642;9.142;2023-07-13T13:31:50;28.10;;;14.93;;
80398;SDS011;69722;48.642;9.142;2023-07-13T13:34:17;26.75;;;14.50;;
80398;SDS011;69722;48.642;9.142;2023-07-13T13:36:43;23.23;;;13.07;;
80398;SDS011;69722;48.642;9.142;2023-07-13T13:39:23;23.70;;;13.35;;
80398;SDS011;69722;48.642;9.142;2023-07-13T13:41:51;24.70;;;13.60;;
80398;SDS011;69722;48.642;9.142;2023-07-13T13:44:17;23.52;;;13.65;;
80398;SDS011;69722;48.642;9.142;2023-07-13T13:46:44;25.10;;;13.63;;
80398;SDS011;69722;48.642;9.142;2023-07-13T13:49:16;23.10;;;13.35;;
80398;SDS011;69722;48.642;9.142;2023-07-13T13:51:43;22.83;;;12.05;;
80398;SDS011;69722;48.642;9.142;2023-07-13T13:54:12;24.30;;;12.65;;
80398;SDS011;69722;48.642;9.142;2023-07-13T13:56:39;23.30;;;12.30;;
80398;SDS011;69722;48.642;9.142;2023-07-13T13:59:05;24.63;;;12.75;;
80398;SDS011;69722;48.642;9.142;2023-07-13T14:01:31;24.75;;;12.80;;
80398;SDS011;69722;48.642;9.142;2023-07-13T14:03:56;23.60;;;12.10;;
80398;SDS011;69722;48.642;9.142;2023-07-13T14:06:24;24.05;;;12.82;;
80398;SDS011;69722;48.642;9.142;2023-07-13T14:08:49;24.03;;;12.53;;
80398;SDS011;69722;48.642;9.142;2023-07-13T14:11:16;21.60;;;12.18;;
80398;SDS011;69722;48.642;9.142;2023-07-13T14:14:18;28.17;;;13.75;;
80398;SDS011;69722;48.642;9.142;2023-07-13T14:16:41;22.05;;;11.40;;
80398;SDS011;69722;48.642;9.142;2023-07-13T14:19:08;22.65;;;11.73;;
80398;SDS011;69722;48.642;9.142;2023-07-13T14:21:35;21.15;;;12.10;;
80398;SDS011;69722;48.642;9.142;2023-07-13T14:24:01;20.83;;;11.20;;
80398;SDS011;69722;48.642;9.142;2023-07-13T14:26:27;20.58;;;11.82;;
80398;SDS011;69722;48.642;9.142;2023-07-13T14:28:54;19.83;;;10.80;;
80398;SDS011;69722;48.642;9.142;2023-07-13T14:31:21;18.77;;;10.50;;
80398;SDS011;69722;48.642;9.142;2023-07-13T14:33:47;20.63;;;10.43;;
80398;SDS011;69722;48.642;9.142;2023-07-13T14:36:29;19.42;;;10.55;;
80398;SDS011;69722;48.642;9.142;2023-07-13T14:38:56;16.98;;;10.13;;
80398;SDS011;69722;48.642;9.142;2023-07-13T14:43:48;21.97;;;11.00;;
80398;SDS011;69722;48.642;9.142;2023-07-13T14:46:49;23.55;;;11.95;;
80398;SDS011;69722;48.642;9.142;2023-07-13T14:51:50;19.08;;;8.90;;
80398;SDS011;69722;48.642;9.142;2023-07-13T14:54:15;17.65;;;9.40;;
80398;SDS011;69722;48.642;9.142;2023-07-13T14:56:41;19.30;;;7.60;;
80398;SDS011;69722;48.642;9.142;2023-07-13T14:59:06;16.42;;;9.05;;
80398;SDS011;69722;48.642;9.142;2023-07-13T15:01:32;17.25;;;8.57;;
80398;SDS011;69722;48.642;9.142;2023-07-13T15:03:58;16.23;;;9.27;;
80398;SDS011;69722;48.642;9.142;2023-07-13T15:06:24;18.23;;;8.25;;
80398;SDS011;69722;48.642;9.142;2023-07-13T15:08:49;16.20;;;8.15;;
80398;SDS011;69722;48.642;9.142;2023-07-13T15:11:15;14.63;;;7.57;;
80398;SDS011;69722;48.642;9.142;2023-07-13T15:13:41;13.57;;;7.25;;
80398;SDS011;69722;48.642;9.142;2023-07-13T15:16:16;11.75;;;6.15;;
80398;SDS011;69722;48.642;9.142;2023-07-13T15:18:43;11.35;;;7.07;;
80398;SDS011;69722;48.642;9.142;2023-07-13T15:21:10;10.80;;;6.30;;
80398;SDS011;69722;48.642;9.142;2023-07-13T15:23:39;10.95;;;6.57;;
80398;SDS011;69722;48.642;9.142;2023-07-13T15:26:05;9.10;;;5.70;;
80398;SDS011;69722;48.642;9.142;2023-07-13T15:28:31;13.27;;;5.43;;
80398;SDS011;69722;48.642;9.142;2023-07-13T15:30:57;11.15;;;5.20;;
80398;SDS011;69722;48.642;9.142;2023-07-13T15:33:26;12.45;;;5.25;;